Time;durP1;ratioP1;P1;durP2;ratioP2;P2;SDS_P1;SDS_P2;PMS_P1;PMS_P2;Temp;Humidity;BMP_temperature;BMP_pressure;BME280_temperature;BME280_humidity;BME280_pressure;Samples;Min_cycle;Max_cycle;Signal;HPM_P1;HPM_P2
2021/05/14 00:00:44;;;;;;;;;;;15.40;99.90;;;15.74;79.79;100619.41;4824179;29;19999;-67
2021/05/14 00:03:12;;;;;;;;;;;15.40;99.90;;;15.75;80.46;100622.06;4824187;29;19924;-67
2021/05/14 00:05:40;;;;;;;;;;;15.50;99.90;;;15.65;80.74;100599.22;4807655;29;20383;-68
2021/05/14 00:08:08;;;;;;;;;;;15.50;99.90;;;15.83;80.88;100624.47;4807949;29;19932;-67
2021/05/14 00:10:38;;;;;;;;;;;15.50;99.90;;;15.83;80.66;100627.16;4824299;29;19932;-68
2021/05/14 00:13:06;;;;;;;;;;;15.50;99.90;;;15.85;79.58;100627.97;4824039;29;19929;-67
2021/05/14 00:15:34;;;;;;;;;;;15.50;99.90;;;15.85;79.39;100626.16;4824049;29;19937;-67
2021/05/14 00:18:02;;;;;;;;;;;15.50;99.90;;;15.78;79.43;100643.28;4823899;29;19932;-67
2021/05/14 00:20:30;;;;;;;;;;;15.50;99.90;;;15.74;79.47;100632.72;4823919;29;19936;-68
2021/05/14 00:22:58;;;;;;;;;;;15.50;99.90;;;15.67;79.16;100621.41;4809945;29;19932;-68
2021/05/14 00:25:26;;;;;;;;;;;15.50;99.90;;;15.76;78.89;100631.78;4810807;29;19929;-68
2021/05/14 00:27:54;;;;;;;;;;;15.50;99.90;;;15.74;78.95;100630.94;4811017;29;19958;-67
2021/05/14 00:30:22;;;;;;;;;;;15.50;99.90;;;15.74;79.05;100636.28;4810406;29;20015;-68
2021/05/14 00:32:50;;;;;;;;;;;15.40;99.90;;;15.77;78.73;100628.22;4827005;29;19973;-67
2021/05/14 00:35:18;;;;;;;;;;;15.50;99.90;;;15.79;78.41;100622.81;4810569;29;19924;-67
2021/05/14 00:37:46;;;;;;;;;;;15.50;99.90;;;15.76;78.69;100633.56;4826594;29;19932;-67
2021/05/14 00:40:14;;;;;;;;;;;15.50;99.90;;;15.76;78.57;100636.22;4826553;29;20456;-67
2021/05/14 00:42:43;;;;;;;;;;;15.50;99.90;;;15.74;78.65;100628.28;4826550;29;19935;-68
2021/05/14 00:45:11;;;;;;;;;;;15.50;99.90;;;15.80;78.31;100629.88;4826800;29;19925;-67
2021/05/14 00:47:39;;;;;;;;;;;15.50;99.90;;;15.80;78.19;100629.88;4826755;29;19977;-67
2021/05/14 00:50:08;;;;;;;;;;;15.50;99.90;;;15.55;78.53;100627.06;4826733;29;20321;-67
2021/05/14 00:52:36;;;;;;;;;;;15.30;99.90;;;15.48;79.13;100628.19;4810393;29;19929;-67
2021/05/14 00:55:05;;;;;;;;;;;15.20;99.90;;;15.45;79.22;100622.06;4826664;29;19964;-67
2021/05/14 00:57:34;;;;;;;;;;;15.20;99.90;;;15.55;79.67;100629.75;4826498;29;19936;-68
2021/05/14 01:00:03;;;;;;;;;;;15.20;99.90;;;15.59;79.37;100627.84;4826292;29;19947;-67
2021/05/14 01:02:31;;;;;;;;;;;15.30;99.90;;;15.61;79.29;100626.00;4826766;29;19924;-67
2021/05/14 01:04:59;;;;;;;;;;;15.30;99.90;;;15.60;79.11;100624.28;4827026;29;19956;-67
2021/05/14 01:07:26;;;;;;;;;;;15.30;99.90;;;15.61;78.71;100618.03;4826487;29;20372;-67
2021/05/14 01:09:54;;;;;;;;;;;15.30;99.90;;;15.60;78.71;100624.28;4826371;29;19973;-67
2021/05/14 01:12:24;;;;;;;;;;;15.40;99.90;;;15.57;78.59;100621.69;4826538;29;19929;-67
2021/05/14 01:14:52;;;;;;;;;;;15.30;99.90;;;15.55;78.50;100621.75;4826332;29;19948;-67
2021/05/14 01:17:21;;;;;;;;;;;15.30;99.90;;;15.51;78.36;100617.41;4825964;29;19928;-67
2021/05/14 01:19:49;;;;;;;;;;;15.30;99.90;;;15.41;78.24;100610.56;4826231;29;19981;-67
2021/05/14 01:22:19;;;;;;;;;;;15.30;99.90;;;15.46;78.22;100621.13;4809909;29;19925;-67
2021/05/14 01:24:47;;;;;;;;;;;15.30;99.90;;;15.32;78.49;100625.03;4825961;29;19924;-67
2021/05/14 01:27:15;;;;;;;;;;;15.10;99.90;;;15.28;78.58;100618.03;4825941;29;19925;-67
2021/05/14 01:29:44;;;;;;;;;;;15.00;99.90;;;15.20;78.97;100622.69;4825895;29;19960;-67
2021/05/14 01:32:12;;;;;;;;;;;15.00;99.90;;;15.22;79.13;100628.84;4825829;29;19932;-68
2021/05/14 01:34:43;;;;;;;;;;;14.90;99.90;;;15.26;79.35;100626.97;4809263;29;19924;-67
2021/05/14 01:37:12;;;;;;;;;;;14.90;99.90;;;15.04;79.20;100612.50;4825974;29;19928;-68
2021/05/14 01:39:41;;;;;;;;;;;14.80;99.90;;;15.04;79.32;100620.50;4809279;29;20027;-67
2021/05/14 01:42:08;;;;;;;;;;;14.80;99.90;;;15.06;79.29;100622.19;4825851;29;19932;-67
2021/05/14 01:44:36;;;;;;;;;;;14.70;99.90;;;15.07;79.49;100615.94;4825868;29;19924;-67
2021/05/14 01:47:04;;;;;;;;;;;14.80;99.90;;;14.92;79.71;100600.38;4825520;29;20360;-67
2021/05/14 01:49:33;;;;;;;;;;;14.70;99.90;;;15.02;79.48;100606.34;4825457;29;20344;-67
2021/05/14 01:52:01;;;;;;;;;;;14.70;99.90;;;15.05;79.71;100617.78;4825886;29;20294;-68
2021/05/14 01:54:29;;;;;;;;;;;14.70;99.90;;;14.99;79.61;100609.94;4825755;29;19932;-68
2021/05/14 01:56:58;;;;;;;;;;;14.70;99.90;;;15.01;80.15;100616.13;4825644;29;19951;-67
2021/05/14 01:59:25;;;;;;;;;;;14.70;99.90;;;14.97;80.15;100609.13;4825731;29;19932;-67
2021/05/14 02:01:53;;;;;;;;;;;14.70;99.90;;;15.04;80.17;100610.69;4825155;29;19929;-67
2021/05/14 02:04:21;;;;;;;;;;;14.70;99.90;;;15.04;79.88;100605.38;4825372;29;19951;-67
2021/05/14 02:06:49;;;;;;;;;;;14.70;99.90;;;14.65;79.83;100547.84;4809088;29;20000;-67
2021/05/14 02:09:17;;;;;;;;;;;14.80;99.90;;;15.02;79.45;100615.19;4825815;29;19924;-67
2021/05/14 02:11:44;;;;;;;;;;;14.70;99.90;;;15.01;79.73;100612.56;4825260;29;19985;-67
2021/05/14 02:14:13;;;;;;;;;;;14.70;99.90;;;15.03;79.40;100619.63;4825494;29;19929;-67
2021/05/14 02:16:40;;;;;;;;;;;14.70;99.90;;;15.06;79.70;100619.50;4825437;29;19925;-68
2021/05/14 02:19:08;;;;;;;;;;;14.70;99.90;;;14.97;79.92;100609.13;4808877;29;20353;-67
2021/05/14 02:21:36;;;;;;;;;;;14.70;99.90;;;14.99;79.92;100611.72;4825381;29;19924;-67
2021/05/14 02:24:04;;;;;;;;;;;14.70;99.90;;;15.02;80.04;100611.66;4825319;29;19925;-67
2021/05/14 02:26:32;;;;;;;;;;;14.70;99.90;;;14.97;80.01;100606.44;4825277;29;19928;-67
2021/05/14 02:28:59;;;;;;;;;;;14.70;99.90;;;14.97;80.09;100609.13;4825274;29;19936;-67
2021/05/14 02:31:28;;;;;;;;;;;14.70;99.90;;;14.89;80.19;100589.78;4825404;29;19931;-68
2021/05/14 02:33:56;;;;;;;;;;;14.70;99.90;;;14.95;80.24;100602.94;4824987;29;19973;-67
2021/05/14 02:36:24;;;;;;;;;;;14.70;99.90;;;14.94;79.97;100595.00;4808576;29;19925;-67
2021/05/14 02:38:52;;;;;;;;;;;14.60;99.90;;;14.93;79.70;100599.47;4824888;29;19936;-68
2021/05/14 02:41:20;;;;;;;;;;;14.60;99.90;;;14.94;80.05;100598.53;4808579;29;19936;-68
2021/05/14 02:43:47;;;;;;;;;;;14.60;99.90;;;15.03;80.05;100600.97;4824818;29;19928;-67
2021/05/14 02:46:15;;;;;;;;;;;14.70;99.90;;;14.97;79.83;100593.13;4824200;29;19929;-67
2021/05/14 02:48:44;;;;;;;;;;;14.70;99.90;;;14.93;79.72;100591.47;4825021;29;19929;-68
2021/05/14 02:51:11;;;;;;;;;;;14.70;99.90;;;14.87;79.85;100585.41;4824774;29;19924;-67
2021/05/14 02:53:39;;;;;;;;;;;14.60;99.90;;;14.94;79.99;100593.19;4824694;29;19996;-68
2021/05/14 02:56:07;;;;;;;;;;;14.70;99.90;;;14.98;80.28;100602.84;4824526;29;19932;-67
2021/05/14 02:58:34;;;;;;;;;;;14.70;99.90;;;15.13;80.00;100601.59;4824761;29;19924;-68
2021/05/14 03:01:02;;;;;;;;;;;14.80;99.90;;;15.07;80.53;100594.66;4824881;29;19981;-67
2021/05/14 03:03:30;;;;;;;;;;;14.80;99.90;;;15.12;79.77;100598.03;4824636;29;19929;-68
2021/05/14 03:05:59;;;;;;;;;;;14.90;99.90;;;15.17;79.33;100593.47;4824752;29;19929;-67
2021/05/14 03:08:26;;;;;;;;;;;14.90;99.90;;;14.88;79.09;100593.38;4824722;29;19925;-67
2021/05/14 03:10:54;;;;;;;;;;;14.70;99.90;;;14.19;80.96;100587.09;4824682;29;19968;-67
2021/05/14 03:13:22;;;;;;;;;;;14.30;99.90;;;14.20;81.51;100603.06;4824723;29;19931;-68
2021/05/14 03:15:50;;;;;;;;;;;14.10;99.90;;;13.96;82.84;100600.94;4824941;29;19929;-67
2021/05/14 03:18:18;;;;;;;;;;;13.80;99.90;;;13.70;84.12;100602.44;4824558;29;19925;-67
2021/05/14 03:20:45;;;;;;;;;;;13.50;99.90;;;13.65;84.81;100602.50;4808133;29;19970;-67
2021/05/14 03:23:14;;;;;;;;;;;13.40;99.90;;;13.62;84.76;100588.41;4824560;29;19989;-68
2021/05/14 03:25:42;;;;;;;;;;;13.30;99.90;;;13.74;84.82;100597.03;4824476;29;20456;-68
2021/05/14 03:28:09;;;;;;;;;;;13.40;99.90;;;13.82;84.39;100603.03;4824501;29;19924;-67
2021/05/14 03:30:37;;;;;;;;;;;13.50;99.90;;;13.94;84.39;100601.88;4808030;29;19936;-68
2021/05/14 03:33:05;;;;;;;;;;;13.50;99.90;;;13.86;84.42;100596.72;4824345;29;19932;-68
2021/05/14 03:35:33;;;;;;;;;;;13.60;99.90;;;13.56;84.65;100600.94;4824060;29;19928;-68
2021/05/14 03:38:01;;;;;;;;;;;13.40;99.90;;;13.28;85.80;100594.44;4824285;29;20001;-67
2021/05/14 03:40:35;;;;;;;;;;;13.10;99.90;;;13.22;87.34;100597.19;4824376;29;19932;-68
2021/05/14 03:43:03;;;;;;;;;;;13.00;99.90;;;13.29;86.39;100571.41;4824137;29;20450;-68
2021/05/14 03:45:31;;;;;;;;;;;13.10;99.90;;;13.20;86.37;100571.59;4824277;29;20364;-68
2021/05/14 03:47:59;;;;;;;;;;;13.10;99.90;;;13.53;85.80;100593.03;4824300;29;19935;-68
2021/05/14 03:50:31;;;;;;;;;;;13.20;99.90;;;13.39;84.95;100599.53;4823831;29;19948;-68
2021/05/14 03:53:02;;;;;;;;;;;13.20;99.90;;;13.14;85.70;100572.56;4807885;29;19935;-67
2021/05/14 03:55:31;;;;;;;;;;;13.10;99.90;;;12.70;85.99;100490.22;4824233;29;20020;-68
2021/05/14 03:57:58;;;;;;;;;;;13.10;99.90;;;13.12;86.47;100595.66;4826656;29;19924;-67
2021/05/14 04:00:26;;;;;;;;;;;13.00;99.90;;;13.42;86.18;100597.69;4827558;29;19932;-67
2021/05/14 04:02:55;;;;;;;;;;;13.20;99.90;;;13.42;85.94;100597.69;4827530;29;19931;-67
2021/05/14 04:05:24;;;;;;;;;;;13.20;99.90;;;13.29;85.94;100595.31;4827566;29;19979;-68
2021/05/14 04:07:52;;;;;;;;;;;13.10;99.90;;;13.26;86.46;100596.22;4827677;29;19977;-68
2021/05/14 04:10:30;;;;;;;;;;;13.10;99.90;;;13.12;86.79;100598.31;4827088;29;20342;-67
2021/05/14 04:15:43;;;;;;;;;;;13.00;99.90;;;13.19;86.43;100591.97;4826460;29;19928;-67
2021/05/14 04:18:11;;;;;;;;;;;13.00;99.90;;;13.32;86.42;100596.13;4827180;29;19963;-68
2021/05/14 04:20:39;;;;;;;;;;;13.10;99.90;;;13.47;86.16;100603.78;4827229;29;19925;-67
2021/05/14 04:23:07;;;;;;;;;;;13.20;99.90;;;13.48;86.05;100596.69;4811158;29;19935;-69
2021/05/14 04:25:37;;;;;;;;;;;13.20;99.90;;;13.61;85.52;100605.28;4827142;29;19973;-67
2021/05/14 04:28:06;;;;;;;;;;;13.40;99.90;;;13.62;85.47;100604.38;4827133;29;19924;-67
2021/05/14 04:30:34;;;;;;;;;;;13.40;99.90;;;13.62;84.98;100604.38;4827054;29;19971;-67
2021/05/14 04:33:02;;;;;;;;;;;13.40;99.90;;;13.71;84.60;100609.47;4827089;29;19925;-67
2021/05/14 04:35:29;;;;;;;;;;;13.50;99.90;;;13.40;85.27;100610.13;4810608;29;19976;-67
2021/05/14 04:37:57;;;;;;;;;;;13.20;99.90;;;13.47;85.19;100609.09;4826968;29;20395;-67
2021/05/14 04:40:25;;;;;;;;;;;13.20;99.90;;;13.45;85.20;100602.94;4826847;29;19925;-67
2021/05/14 04:42:53;;;;;;;;;;;13.30;99.90;;;13.43;85.55;100609.19;4826817;29;19955;-67
2021/05/14 04:45:22;;;;;;;;;;;13.20;99.90;;;13.32;85.58;100606.75;4826741;29;19929;-67
2021/05/14 04:47:49;;;;;;;;;;;13.10;99.90;;;13.03;87.18;100600.19;4826812;29;20004;-67
2021/05/14 04:50:18;;;;;;;;;;;12.90;99.90;;;13.11;87.11;100596.53;4826384;29;19925;-67
2021/05/14 04:52:46;;;;;;;;;;;12.90;99.90;;;13.16;86.38;100597.31;4826696;29;19925;-67
2021/05/14 04:55:15;;;;;;;;;;;12.90;99.90;;;13.33;86.71;100603.19;4826715;29;19924;-67
2021/05/14 04:57:42;;;;;;;;;;;13.00;99.90;;;13.50;85.92;100602.84;4810333;29;19925;-67
2021/05/14 05:00:11;;;;;;;;;;;13.20;99.90;;;13.55;85.50;100601.84;4826565;29;20012;-67
2021/05/14 05:02:40;;;;;;;;;;;13.30;99.90;;;13.77;85.22;100606.69;4826550;29;19932;-67
2021/05/14 05:05:09;;;;;;;;;;;13.50;99.90;;;13.92;84.71;100611.66;4826765;29;20329;-67
2021/05/14 05:07:37;;;;;;;;;;;13.60;99.90;;;14.05;84.36;100608.69;4826424;29;19925;-67
2021/05/14 05:10:06;;;;;;;;;;;13.80;99.90;;;14.15;84.18;100614.72;4825740;29;19983;-67
2021/05/14 05:12:33;;;;;;;;;;;13.90;99.90;;;14.25;83.81;100616.22;4826374;29;19931;-67
2021/05/14 05:15:01;;;;;;;;;;;14.10;99.90;;;14.34;83.38;100622.25;4826108;29;19960;-67
2021/05/14 05:17:29;;;;;;;;;;;14.10;99.90;;;14.43;83.27;100615.84;4826061;29;19931;-67
2021/05/14 05:19:57;;;;;;;;;;;14.20;99.90;;;14.51;82.66;100619.19;4826163;29;19924;-67
2021/05/14 05:22:25;;;;;;;;;;;14.30;99.90;;;14.39;82.80;100592.88;4826495;29;19925;-67
2021/05/14 05:24:53;;;;;;;;;;;14.40;99.90;;;13.72;81.58;100492.53;4826187;29;19933;-68
2021/05/14 05:27:20;;;;;;;;;;;14.40;99.90;;;14.50;81.07;100624.56;4826165;29;19929;-67
2021/05/14 05:29:49;;;;;;;;;;;14.40;99.90;;;14.51;80.93;100627.16;4825804;29;19947;-67
2021/05/14 05:32:17;;;;;;;;;;;14.30;99.90;;;14.63;81.07;100628.66;4809694;29;20394;-67
2021/05/14 05:34:44;;;;;;;;;;;14.40;99.90;;;14.64;80.81;100633.94;4809647;29;19924;-67
2021/05/14 05:37:13;;;;;;;;;;;14.40;99.90;;;14.70;80.83;100631.13;4826270;29;19931;-67
2021/05/14 05:39:41;;;;;;;;;;;14.50;99.90;;;14.80;80.63;100639.75;4825779;29;19935;-67
2021/05/14 05:42:09;;;;;;;;;;;14.60;99.90;;;14.83;80.32;100637.00;4825828;29;19981;-67
2021/05/14 05:44:36;;;;;;;;;;;14.60;99.90;;;14.84;80.36;100641.44;4825893;29;19925;-67
2021/05/14 05:47:04;;;;;;;;;;;14.60;99.90;;;14.82;80.14;100635.28;4826113;29;19977;-67
2021/05/14 05:49:32;;;;;;;;;;;14.70;99.90;;;14.95;79.65;100648.22;4825379;29;19925;-67
2021/05/14 05:51:59;;;;;;;;;;;14.70;99.90;;;14.95;79.96;100644.69;4825815;29;19932;-67
2021/05/14 05:54:28;;;;;;;;;;;14.80;99.90;;;15.05;79.67;100648.88;4825715;29;19925;-68
2021/05/14 05:56:57;;;;;;;;;;;14.90;99.90;;;15.07;79.74;100655.03;4825659;29;19935;-67
2021/05/14 05:59:25;;;;;;;;;;;14.80;99.90;;;15.03;79.20;100654.25;4825582;29;19940;-67
2021/05/14 06:01:53;;;;;;;;;;;14.90;99.90;;;14.94;78.58;100651.78;4825608;29;20044;-67
2021/05/14 06:04:21;;;;;;;;;;;14.80;99.90;;;15.05;78.85;100643.53;4825643;29;19971;-67
2021/05/14 06:06:49;;;;;;;;;;;14.90;99.90;;;14.99;78.55;100628.59;4825310;29;19925;-67
2021/05/14 06:09:17;;;;;;;;;;;14.90;99.90;;;15.12;78.60;100655.78;4825456;29;19936;-68
2021/05/14 06:11:46;;;;;;;;;;;15.00;99.90;;;15.15;78.41;100655.72;4825357;29;19928;-67
2021/05/14 06:14:13;;;;;;;;;;;15.00;99.90;;;15.21;78.52;100656.41;4825417;29;19924;-67
2021/05/14 06:16:41;;;;;;;;;;;15.00;99.90;;;15.27;78.28;100647.41;4825332;29;20387;-67
2021/05/14 06:19:13;;;;;;;;;;;15.10;99.90;;;15.05;77.92;100638.22;4825308;29;19924;-67
2021/05/14 06:21:45;;;;;;;;;;;15.00;99.90;;;15.11;78.15;100660.25;4825454;29;19929;-67
2021/05/14 06:24:13;;;;;;;;;;;15.00;99.90;;;14.65;78.18;100573.59;4825060;29;19981;-68
2021/05/14 06:26:41;;;;;;;;;;;15.00;99.90;;;15.16;78.20;100657.44;4808739;29;19993;-68
2021/05/14 06:29:10;;;;;;;;;;;15.10;99.90;;;15.19;77.65;100668.88;4825235;29;19967;-68
2021/05/14 06:31:38;;;;;;;;;;;15.10;99.90;;;15.27;78.19;100674.91;4825237;29;20291;-67
2021/05/14 06:34:06;;;;;;;;;;;15.10;99.90;;;15.32;78.40;100666.78;4824959;29;20015;-67
2021/05/14 06:36:34;;;;;;;;;;;15.20;99.90;;;15.40;78.59;100672.78;4825069;29;19981;-67
2021/05/14 06:39:02;;;;;;;;;;;15.20;99.90;;;15.48;78.20;100680.59;4808202;29;19925;-67
2021/05/14 06:41:30;;;;;;;;;;;15.30;99.90;;;15.58;77.99;100693.63;4825380;29;19929;-68
2021/05/14 06:43:58;;;;;;;;;;;15.40;99.90;;;15.49;77.09;100688.56;4825323;29;19977;-68
2021/05/14 06:46:26;;;;;;;;;;;15.30;99.90;;;15.58;77.37;100690.09;4825269;29;19924;-67
2021/05/14 06:48:54;;;;;;;;;;;15.40;99.90;;;15.58;76.88;100696.28;4808428;29;19977;-67
2021/05/14 06:51:22;;;;;;;;;;;15.40;99.90;;;15.57;76.64;100697.22;4825158;29;19987;-68
2021/05/14 06:53:50;;;;;;;;;;;15.40;99.90;;;15.62;76.87;100697.09;4808389;29;19929;-67
2021/05/14 06:56:18;;;;;;;;;;;15.40;99.90;;;15.72;76.45;100695.91;4824797;29;19960;-67
2021/05/14 06:58:46;;;;;;;;;;;15.50;99.90;;;15.64;76.18;100687.28;4824703;29;19928;-68
2021/05/14 07:01:13;;;;;;;;;;;15.50;99.90;;;15.73;76.43;100697.69;4824745;29;19971;-68
2021/05/14 07:03:42;;;;;;;;;;;15.50;99.90;;;15.72;76.52;100688.78;4824391;29;20463;-69
2021/05/14 07:06:11;;;;;;;;;;;15.50;99.90;;;15.80;76.73;100688.56;4824747;29;19924;-68
2021/05/14 07:08:39;;;;;;;;;;;15.60;99.90;;;15.90;76.66;100698.94;4825051;29;19925;-68
2021/05/14 07:11:07;;;;;;;;;;;15.70;99.90;;;15.98;76.57;100701.38;4824688;29;19928;-65
2021/05/14 07:13:34;;;;;;;;;;;15.80;99.90;;;16.04;76.72;100701.22;4824829;29;19929;-71
2021/05/14 07:16:02;;;;;;;;;;;15.80;99.90;;;16.09;75.73;100705.50;4824441;29;19924;-68
2021/05/14 07:18:30;;;;;;;;;;;15.90;99.90;;;16.09;75.13;100702.81;4824604;29;19924;-67
2021/05/14 07:20:59;;;;;;;;;;;15.90;99.90;;;16.17;75.00;100706.13;4808007;29;20023;-67
2021/05/14 07:23:46;;;;;;;;;;;16.00;99.90;;;16.15;74.87;100707.09;4824835;29;19931;-67
2021/05/14 07:26:14;;;;;;;;;;;16.00;99.90;;;16.20;74.05;100698.03;4824498;29;20341;-67
2021/05/14 07:28:41;;;;;;;;;;;16.10;99.90;;;16.33;74.35;100711.91;4824407;29;19928;-67
2021/05/14 07:31:09;;;;;;;;;;;16.10;99.90;;;16.36;73.43;100710.91;4824678;29;20356;-65
2021/05/14 07:33:39;;;;;;;;;;;16.20;99.90;;;16.36;72.80;100708.22;4828028;29;20414;-65
2021/05/14 07:36:09;;;;;;;;;;;16.20;99.90;;;16.37;72.43;100708.22;4828067;29;19925;-63
2021/05/14 07:38:36;;;;;;;;;;;16.20;99.90;;;16.44;73.26;100715.09;4828015;29;20046;-63
2021/05/14 07:41:04;;;;;;;;;;;16.30;99.90;;;16.58;74.12;100712.91;4827782;29;19925;-62
2021/05/14 07:43:32;;;;;;;;;;;16.40;99.90;;;16.62;72.67;100714.56;4827874;29;19929;-66
2021/05/14 07:46:00;;;;;;;;;;;16.50;99.90;;;16.60;70.50;100716.41;4827804;29;19925;-67
2021/05/14 07:48:28;;;;;;;;;;;16.50;99.90;;;16.65;70.70;100722.47;4811430;29;19941;-66
2021/05/14 07:50:56;;;;;;;;;;;16.50;99.90;;;16.75;71.17;100721.25;4827317;29;20372;-70
2021/05/14 07:53:24;;;;;;;;;;;16.60;99.90;;;16.67;70.62;100696.59;4827343;29;20444;-70
2021/05/14 07:55:53;;;;;;;;;;;16.60;99.90;;;16.92;71.29;100718.03;4827629;29;19939;-70
2021/05/14 07:58:22;;;;;;;;;;;16.70;99.90;;;17.03;70.17;100721.25;4827392;29;20019;-70
2021/05/14 08:00:51;;;;;;;;;;;16.80;99.90;;;17.19;70.78;100724.28;4827447;29;19943;-70
2021/05/14 08:03:19;;;;;;;;;;;17.00;99.90;;;17.34;69.13;100726.44;4811156;29;19924;-75
2021/05/14 08:05:47;;;;;;;;;;;17.10;99.90;;;17.48;67.91;100729.53;4827444;29;19925;-68
2021/05/14 08:08:18;;;;;;;;;;;17.30;99.90;;;17.53;65.74;100725.78;4827409;29;19973;-69
2021/05/14 08:10:47;;;;;;;;;;;17.30;99.90;;;17.68;65.53;100727.91;4827293;29;20014;-68
2021/05/14 08:13:21;;;;;;;;;;;17.50;99.90;;;17.79;65.72;100725.72;4827383;29;19932;-69
2021/05/14 08:15:49;;;;;;;;;;;17.60;99.90;;;17.59;62.22;100722.00;4827321;29;19967;-68
2021/05/14 08:18:18;;;;;;;;;;;17.60;99.90;;;17.57;62.67;100727.44;4827023;29;20015;-68
2021/05/14 08:20:46;;;;;;;;;;;17.50;99.90;;;17.42;61.88;100721.69;4827249;29;19931;-68
2021/05/14 08:23:17;;;;;;;;;;;17.40;99.90;;;15.97;65.47;100724.50;4827144;29;19936;-68
2021/05/14 08:25:46;;;;;;;;;;;16.10;99.90;;;16.45;66.96;100722.22;4827172;29;20295;-68
2021/05/14 08:28:14;;;;;;;;;;;16.10;99.90;;;16.81;66.40;100726.41;4826991;29;19957;-67
2021/05/14 08:30:43;;;;;;;;;;;16.50;99.90;;;16.74;63.99;100703.47;4826983;29;20296;-68
2021/05/14 08:33:11;;;;;;;;;;;16.60;99.90;;;17.13;63.93;100717.31;4827318;29;19981;-67
2021/05/14 08:35:41;;;;;;;;;;;16.90;99.90;;;17.08;62.57;100719.28;4810764;29;19956;-67
2021/05/14 08:38:10;;;;;;;;;;;16.90;99.90;;;17.23;63.92;100724.13;4826981;29;19968;-67
2021/05/14 08:40:40;;;;;;;;;;;17.00;99.90;;;17.54;64.19;100727.50;4810480;29;19924;-67
2021/05/14 08:43:11;;;;;;;;;;;17.30;99.90;;;17.33;61.94;100688.13;4825876;29;19931;-68
2021/05/14 08:45:40;;;;;;;;;;;17.40;99.90;;;17.74;61.89;100725.03;4826449;29;19924;-68
2021/05/14 08:48:12;;;;;;;;;;;17.50;99.90;;;17.88;61.31;100729.88;4826563;29;19947;-68
2021/05/14 08:50:41;;;;;;;;;;;17.70;99.90;;;18.24;63.86;100731.16;4826595;29;20364;-67
2021/05/14 08:53:28;;;;;;;;;;;18.00;99.90;;;18.38;60.63;100734.19;4826896;29;19998;-68
2021/05/14 08:55:57;;;;;;;;;;;18.30;99.90;;;18.54;60.22;100731.84;4826524;29;19973;-67
2021/05/14 08:58:25;;;;;;;;;;;18.40;99.90;;;18.13;58.75;100730.72;4826402;29;19925;-67
2021/05/14 09:00:54;;;;;;;;;;;18.20;99.90;;;17.55;60.79;100725.72;4826467;29;19967;-68
2021/05/14 09:03:26;;;;;;;;;;;17.60;99.90;;;18.05;61.36;100732.78;4826209;29;20333;-67
2021/05/14 09:05:54;;;;;;;;;;;17.90;99.90;;;17.38;59.45;100734.28;4826466;29;19939;-67
2021/05/14 09:08:26;;;;;;;;;;;17.50;99.90;;;16.62;62.72;100740.41;4826362;29;19933;-67
2021/05/14 09:10:54;;;;;;;;;;;16.60;99.90;;;17.00;62.09;100732.03;4826277;29;19928;-67
2021/05/14 09:13:22;;;;;;;;;;;16.70;99.90;;;16.71;61.48;100636.81;4825978;29;19925;-67
2021/05/14 09:15:50;;;;;;;;;;;17.00;99.90;;;17.57;60.67;100750.63;4809927;29;19952;-68
2021/05/14 09:18:19;;;;;;;;;;;17.20;99.90;;;17.76;59.97;100746.38;4825940;29;19925;-67
2021/05/14 09:20:48;;;;;;;;;;;17.50;99.90;;;17.96;61.10;100751.88;4825814;29;20379;-73
2021/05/14 09:23:33;;;;;;;;;;;17.70;99.90;;;18.23;61.46;100752.66;4809841;29;19928;-74
2021/05/14 09:26:03;;;;;;;;;;;18.00;99.90;;;18.24;61.21;100752.59;4825933;29;20670;-74
2021/05/14 09:28:34;;;;;;;;;;;18.00;99.90;;;18.53;61.06;100736.31;4826192;29;19929;-72
2021/05/14 09:31:05;;;;;;;;;;;18.40;99.90;;;18.88;60.13;100751.88;4809797;29;19936;-72
2021/05/14 09:33:34;;;;;;;;;;;18.70;99.90;;;18.99;59.86;100755.94;4825903;29;20307;-72
2021/05/14 09:36:03;;;;;;;;;;;18.90;99.90;;;19.07;58.54;100737.69;4825912;29;20406;-67
2021/05/14 09:38:42;;;;;;;;;;;19.00;99.90;;;19.16;59.24;100748.06;4825672;29;19935;-72
2021/05/14 09:41:32;;;;;;;;;;;19.00;99.90;;;19.24;56.90;100738.75;4825926;29;19932;-79
2021/05/14 09:44:03;;;;;;;;;;;19.20;99.90;;;19.26;58.06;100752.13;4825683;29;19968;-72
2021/05/14 09:46:34;;;;;;;;;;;19.20;99.90;;;19.16;56.72;100740.91;4825912;29;20494;-75
2021/05/14 09:49:08;;;;;;;;;;;19.20;99.90;;;19.06;56.16;100725.25;4825880;29;19981;-75
2021/05/14 09:51:45;;;;;;;;;;;19.10;99.90;;;17.67;58.35;100734.16;4825708;29;19975;-70
2021/05/14 09:54:21;;;;;;;;;;;17.90;99.90;;;17.54;59.42;100730.19;4825428;29;19933;-70
2021/05/14 09:57:31;;;;;;;;;;;17.30;99.90;;;17.28;60.24;100699.91;4825696;29;19975;-70
2021/05/14 10:00:00;;;;;;;;;;;17.10;99.90;;;17.77;61.15;100726.69;4809157;29;19935;-71
2021/05/14 10:02:34;;;;;;;;;;;17.40;99.90;;;18.27;61.59;100733.75;4825397;29;19925;-73
2021/05/14 10:05:04;;;;;;;;;;;17.90;99.90;;;18.68;61.22;100732.16;4825173;29;19924;-71
2021/05/14 10:07:32;;;;;;;;;;;18.30;99.90;;;18.79;58.36;100735.28;4825527;29;19925;-66
2021/05/14 10:10:03;;;;;;;;;;;18.70;99.90;;;19.03;58.80;100726.22;4825480;29;20298;-68
2021/05/14 10:12:31;;;;;;;;;;;18.80;99.90;;;19.28;55.51;100742.19;4809178;29;19969;-78
2021/05/14 10:15:02;;;;;;;;;;;19.10;99.90;;;18.86;54.79;100736.78;4825419;29;20399;-73
2021/05/14 10:17:30;;;;;;;;;;;18.70;99.90;;;18.69;55.79;100732.09;4825474;29;19925;-71
2021/05/14 10:20:00;;;;;;;;;;;18.60;99.90;;;18.66;56.03;100726.84;4825235;29;19924;-72
2021/05/14 10:22:29;;;;;;;;;;;18.50;99.90;;;19.17;57.32;100734.59;4825159;29;19924;-72
2021/05/14 10:24:58;;;;;;;;;;;18.90;99.90;;;18.83;53.21;100729.72;4825554;29;19967;-69
2021/05/14 10:27:28;;;;;;;;;;;18.80;99.90;;;18.80;53.73;100732.53;4825173;29;19929;-69
2021/05/14 10:29:57;;;;;;;;;;;18.60;99.90;;;19.26;54.50;100728.81;4824952;29;19924;-72
2021/05/14 10:32:51;;;;;;;;;;;19.00;99.90;;;19.69;53.28;100728.78;4825221;29;19924;-71
2021/05/14 10:35:25;;;;;;;;;;;19.40;99.90;;;19.82;50.52;100734.47;4824849;29;19958;-70
2021/05/14 10:37:54;;;;;;;;;;;19.70;99.90;;;19.73;51.75;100729.50;4808837;29;19929;-69
2021/05/14 10:40:42;;;;;;;;;;;19.70;99.90;;;20.14;54.54;100746.44;4824949;29;19975;-70
2021/05/14 10:43:11;;;;;;;;;;;20.00;99.90;;;20.26;52.61;100729.81;4824861;29;19925;-69
2021/05/14 10:45:40;;;;;;;;;;;20.20;99.90;;;20.33;53.84;100728.56;4825020;29;20292;-69
2021/05/14 10:48:17;;;;;;;;;;;20.20;99.90;;;20.51;53.19;100739.34;4824928;29;19947;-67
2021/05/14 10:50:46;;;;;;;;;;;20.40;99.90;;;20.64;52.75;100735.13;4824624;29;19925;-67
2021/05/14 10:53:37;;;;;;;;;;;20.50;99.90;;;20.90;52.07;100717.72;4824842;29;19933;-68
2021/05/14 10:56:32;;;;;;;;;;;20.80;99.90;;;20.96;48.90;100721.94;4823784;29;19964;-71
2021/05/14 10:59:29;;;;;;;;;;;20.90;99.90;;;21.03;49.07;100721.59;4808339;29;19929;-70
2021/05/14 11:01:58;;;;;;;;;;;21.00;99.90;;;21.19;50.87;100724.38;4803762;29;20359;-70
2021/05/14 11:04:41;;;;;;;;;;;21.10;99.90;;;21.32;47.83;100725.50;4824281;29;19924;-72
2021/05/14 11:07:36;;;;;;;;;;;21.20;99.90;;;21.27;47.79;100724.88;4823799;29;19925;-71
2021/05/14 11:10:26;;;;;;;;;;;21.30;99.90;;;20.64;52.67;100720.78;4824699;29;19929;-70
2021/05/14 11:12:54;;;;;;;;;;;20.80;99.90;;;20.41;54.06;100729.09;4824634;29;19994;-69
2021/05/14 11:15:33;;;;;;;;;;;20.30;99.90;;;20.45;53.32;100730.69;4807991;29;20026;-71
2021/05/14 11:18:25;;;;;;;;;;;20.30;99.90;;;20.30;53.69;100729.59;4824410;29;19932;-66
2021/05/14 11:20:56;;;;;;;;;;;20.30;99.90;;;19.93;54.02;100732.19;4824432;29;20011;-77
2021/05/14 11:23:39;;;;;;;;;;;19.90;99.90;;;19.89;54.89;100730.56;4824375;29;20283;-77